Time;durP1;ratioP1;P1;durP2;ratioP2;P2;SDS_P1;SDS_P2;PMS_P1;PMS_P2;Temp;Humidity;BMP_temperature;BMP_pressure;BME280_temperature;BME280_humidity;BME280_pressure;Samples;Min_cycle;Max_cycle;Signal;HPM_P1;HPM_P2
2023/08/21 00:01:40;;;;;;;7.43;3.38;;;18.90;99.90;;;;;;5041480;28;20111;-87
2023/08/21 00:04:07;;;;;;;4.37;3.20;;;17.90;99.90;;;;;;5037515;28;20037;-88
2023/08/21 00:06:35;;;;;;;6.32;3.17;;;17.80;99.90;;;;;;5038109;28;20052;-88
2023/08/21 00:09:02;;;;;;;5.35;3.08;;;21.30;99.90;;;;;;5038910;28;20036;-87
2023/08/21 00:11:28;;;;;;;7.43;3.00;;;19.20;99.90;;;;;;5039411;28;20043;-87
2023/08/21 00:13:54;;;;;;;5.05;2.83;;;19.10;99.90;;;;;;5020701;28;20036;-87
2023/08/21 00:16:20;;;;;;;4.55;2.70;;;18.00;99.90;;;;;;5055805;28;20055;-87
2023/08/21 00:18:45;;;;;;;6.65;3.22;;;19.20;99.90;;;;;;5032745;28;20128;-88
2023/08/21 00:21:12;;;;;;;4.43;2.70;;;19.10;99.90;;;;;;5009412;28;20136;-87
2023/08/21 00:23:38;;;;;;;3.25;2.30;;;18.90;99.90;;;;;;5035065;28;20037;-88
2023/08/21 00:26:04;;;;;;;3.65;2.30;;;18.70;99.90;;;;;;5047320;28;20401;-87
2023/08/21 00:28:32;;;;;;;2.42;1.92;;;18.40;99.90;;;;;;5031051;28;20041;-87
2023/08/21 00:31:06;;;;;;;5.28;2.30;;;18.20;99.90;;;;;;5029671;28;20075;-87
2023/08/21 00:33:32;;;;;;;3.33;1.80;;;18.20;99.90;;;;;;5051616;28;20036;-88
2023/08/21 00:35:58;;;;;;;2.00;1.80;;;17.90;99.90;;;;;;5038972;28;20119;-87
2023/08/21 00:38:24;;;;;;;2.00;1.90;;;17.40;99.90;;;;;;5032820;28;20100;-88
2023/08/21 00:40:51;;;;;;;2.40;2.20;;;17.10;99.90;;;;;;5044361;28;20496;-88
2023/08/21 00:43:16;;;;;;;2.33;2.13;;;16.90;99.90;;;;;;5051744;28;20661;-88
2023/08/21 00:45:45;;;;;;;3.70;2.40;;;16.90;99.90;;;;;;5035330;28;20047;-88
2023/08/21 00:48:12;;;;;;;3.38;2.33;;;16.90;99.90;;;;;;5054071;28;20063;-88
2023/08/21 00:50:38;;;;;;;2.95;2.05;;;17.10;99.90;;;;;;5055028;28;20040;-87
2023/08/21 00:53:06;;;;;;;3.80;2.22;;;17.20;99.90;;;;;;5015451;28;20116;-88
2023/08/21 00:55:33;;;;;;;3.63;2.20;;;17.30;99.90;;;;;;5018039;28;20082;-89
2023/08/21 00:58:00;;;;;;;6.85;2.47;;;17.30;99.90;;;;;;5027468;28;20040;-87
2023/08/21 01:00:28;;;;;;;2.60;1.80;;;17.40;99.90;;;;;;5033012;28;20119;-88
2023/08/21 01:02:55;;;;;;;3.50;1.92;;;17.50;99.90;;;;;;5036082;28;20041;-87
2023/08/21 01:05:23;;;;;;;7.32;2.33;;;17.60;99.90;;;;;;5050924;28;20076;-87
2023/08/21 01:08:19;;;;;;;4.53;2.60;;;17.90;99.90;;;;;;5037368;28;20033;-87
2023/08/21 01:11:27;;;;;;;3.72;2.25;;;17.80;99.90;;;;;;5060360;28;20075;-87
2023/08/21 01:14:11;;;;;;;7.50;2.70;;;18.00;99.90;;;;;;4971031;28;20512;-88
2023/08/21 01:16:39;;;;;;;4.22;2.45;;;18.00;99.90;;;;;;5053211;28;20166;-88
2023/08/21 01:19:12;;;;;;;7.38;3.72;;;18.10;99.90;;;;;;5040714;28;20045;-89
2023/08/21 01:21:39;;;;;;;7.47;3.05;;;18.10;99.90;;;;;;5032400;28;20041;-89
2023/08/21 01:24:06;;;;;;;5.75;3.03;;;18.20;99.90;;;;;;5039264;28;20116;-89
2023/08/21 01:26:32;;;;;;;6.40;3.17;;;16.50;99.90;;;;;;5005841;28;20041;-88
2023/08/21 01:28:59;;;;;;;3.88;3.13;;;16.70;99.90;;;;;;5018464;28;20040;-88
2023/08/21 01:31:28;;;;;;;5.95;3.13;;;18.20;99.90;;;;;;5017209;28;20404;-89
2023/08/21 01:33:58;;;;;;;5.50;2.75;;;18.20;99.90;;;;;;5037281;28;20032;-89
2023/08/21 01:36:25;;;;;;;9.98;2.80;;;18.20;99.90;;;;;;5029682;28;20542;-88
2023/08/21 01:38:51;;;;;;;9.85;2.95;;;18.10;99.90;;;;;;5003224;28;20037;-89
2023/08/21 01:41:17;;;;;;;5.57;2.90;;;17.90;99.90;;;;;;5032136;28;20037;-88
2023/08/21 01:43:43;;;;;;;4.35;2.55;;;18.00;99.90;;;;;;5037915;28;20063;-86
2023/08/21 01:46:09;;;;;;;4.45;2.47;;;17.90;99.90;;;;;;5020811;28;20036;-86
2023/08/21 01:48:35;;;;;;;5.70;2.47;;;17.90;99.90;;;;;;5029018;28;20037;-86
2023/08/21 01:51:03;;;;;;;3.25;2.17;;;17.70;99.90;;;;;;5002945;28;20049;-88
2023/08/21 01:53:28;;;;;;;8.65;2.60;;;17.60;99.90;;;;;;5023097;28;20468;-88
2023/08/21 01:55:54;;;;;;;5.05;2.33;;;17.60;99.90;;;;;;5014644;28;20051;-88
2023/08/21 01:58:20;;;;;;;4.53;2.75;;;17.60;99.90;;;;;;5022266;28;20045;-87
2023/08/21 02:00:47;;;;;;;7.35;3.80;;;17.70;99.90;;;;;;5029622;28;20071;-88
2023/08/21 02:03:13;;;;;;;7.80;3.92;;;17.80;99.90;;;;;;5046784;28;20393;-88
2023/08/21 02:05:39;;;;;;;4.32;2.53;;;17.80;99.90;;;;;;5002822;28;20189;-88
2023/08/21 02:08:07;;;;;;;3.22;2.67;;;17.70;99.90;;;;;;5025148;28;20040;-87
2023/08/21 02:10:32;;;;;;;4.85;2.72;;;17.70;99.90;;;;;;5039216;28;20115;-87
2023/08/21 02:12:58;;;;;;;4.10;2.45;;;17.70;99.90;;;;;;5021261;28;20124;-86
2023/08/21 02:15:24;;;;;;;3.95;2.30;;;17.70;99.90;;;;;;5017141;28;20062;-87
2023/08/21 02:17:50;;;;;;;4.80;2.80;;;17.70;99.90;;;;;;5026149;28;20044;-87
2023/08/21 02:20:16;;;;;;;6.13;3.00;;;17.80;99.90;;;;;;5038758;28;20040;-87
2023/08/21 02:22:41;;;;;;;5.78;2.92;;;17.80;99.90;;;;;;5056075;28;20040;-89
2023/08/21 02:25:07;;;;;;;5.75;3.35;;;17.90;99.90;;;;;;5056585;28;20078;-88
2023/08/21 02:27:33;;;;;;;5.68;2.88;;;17.90;99.90;;;;;;5025962;28;20124;-87
2023/08/21 02:29:59;;;;;;;5.63;3.00;;;17.80;99.90;;;;;;5048562;28;20131;-87
2023/08/21 02:32:25;;;;;;;5.95;2.75;;;17.70;99.90;;;;;;5057244;28;20036;-88
2023/08/21 02:34:50;;;;;;;5.75;2.22;;;17.70;99.90;;;;;;5059483;28;20040;-87
2023/08/21 02:37:16;;;;;;;12.32;3.58;;;17.70;99.90;;;;;;5022939;28;20032;-88
2023/08/21 02:39:42;;;;;;;4.15;2.47;;;17.70;99.90;;;;;;5058041;28;20036;-87
2023/08/21 02:42:10;;;;;;;5.10;3.15;;;17.80;99.90;;;;;;5050961;28;20032;-87
2023/08/21 02:44:36;;;;;;;7.95;3.00;;;17.80;99.90;;;;;;5024454;28;20087;-87
2023/08/21 02:47:02;;;;;;;2.67;2.28;;;17.70;99.90;;;;;;5020793;28;20068;-87
2023/08/21 02:49:27;;;;;;;5.18;2.20;;;17.40;99.90;;;;;;5053967;28;20032;-87
2023/08/21 02:51:53;;;;;;;3.50;2.10;;;17.30;99.90;;;;;;5039650;28;20047;-87
2023/08/21 02:54:19;;;;;;;4.05;2.50;;;17.30;99.90;;;;;;5028324;28;20119;-87
2023/08/21 02:56:45;;;;;;;5.25;2.65;;;17.20;99.90;;;;;;5040602;28;20046;-87
2023/08/21 02:59:10;;;;;;;5.05;2.53;;;17.30;99.90;;;;;;5031815;28;20100;-86
2023/08/21 03:01:36;;;;;;;5.22;3.15;;;17.40;99.90;;;;;;5041373;28;20043;-85
2023/08/21 03:04:03;;;;;;;6.30;3.20;;;17.60;99.90;;;;;;5047798;28;20060;-87
2023/08/21 03:06:29;;;;;;;8.07;3.80;;;17.70;99.90;;;;;;5070944;28;20048;-88
2023/08/21 03:08:55;;;;;;;7.88;3.75;;;17.70;99.90;;;;;;5060564;28;20043;-88
2023/08/21 03:11:21;;;;;;;5.90;3.40;;;18.00;99.90;;;;;;5041463;28;20032;-88
2023/08/21 03:13:47;;;;;;;7.97;3.60;;;17.90;99.90;;;;;;5061689;28;20548;-87
2023/08/21 03:16:13;;;;;;;6.72;3.88;;;18.00;99.90;;;;;;5043504;28;20032;-86
2023/08/21 03:18:55;;;;;;;9.02;4.07;;;18.00;99.90;;;;;;5015841;28;20060;-87
2023/08/21 03:21:22;;;;;;;6.43;4.35;;;18.00;99.90;;;;;;5023049;28;20374;-88
2023/08/21 03:23:57;;;;;;;10.80;4.22;;;18.10;99.90;;;;;;4997574;28;20045;-88
2023/08/21 03:26:23;;;;;;;7.88;3.83;;;18.10;99.90;;;;;;5047940;28;20036;-88
2023/08/21 03:28:49;;;;;;;6.03;4.05;;;18.00;99.90;;;;;;5031567;28;20076;-86
2023/08/21 03:31:15;;;;;;;11.10;4.88;;;18.10;99.90;;;;;;5038294;28;20060;-87
2023/08/21 03:33:41;;;;;;;5.57;4.47;;;18.00;99.90;;;;;;5019698;28;20087;-87
2023/08/21 03:36:07;;;;;;;9.93;5.70;;;18.00;99.90;;;;;;5013532;28;20029;-86
2023/08/21 03:38:34;;;;;;;7.95;4.40;;;17.90;99.90;;;;;;5008356;28;20455;-87
2023/08/21 03:41:04;;;;;;;11.68;5.28;;;17.90;99.90;;;;;;5037942;28;20094;-87
2023/08/21 03:43:31;;;;;;;5.60;4.25;;;17.60;99.90;;;;;;5032203;28;20085;-89
2023/08/21 03:45:57;;;;;;;8.90;4.95;;;18.00;99.90;;;;;;5038288;28;20082;-88
2023/08/21 03:48:28;;;;;;;7.97;4.93;;;17.90;99.90;;;;;;5021189;28;20037;-85
2023/08/21 03:50:55;;;;;;;9.00;5.13;;;18.10;99.90;;;;;;5027628;28;20536;-86
2023/08/21 03:53:22;;;;;;;9.48;6.05;;;17.90;99.90;;;;;;5032890;28;20448;-87
2023/08/21 03:55:51;;;;;;;6.95;4.95;;;18.10;99.90;;;;;;5038724;28;20039;-88
2023/08/21 03:58:25;;;;;;;7.45;4.88;;;18.10;99.90;;;;;;5068218;28;20048;-88
2023/08/21 04:00:52;;;;;;;9.88;6.70;;;18.10;99.90;;;;;;5032910;28;20047;-88
2023/08/21 04:03:18;;;;;;;11.75;6.78;;;18.00;99.90;;;;;;4998295;28;20045;-88
2023/08/21 04:05:45;;;;;;;11.90;6.10;;;16.50;99.90;;;;;;5019994;28;20045;-89
2023/08/21 04:08:12;;;;;;;10.65;6.38;;;18.00;99.90;;;;;;5038113;28;20080;-86
2023/08/21 04:10:41;;;;;;;9.32;6.65;;;18.00;99.90;;;;;;5033483;28;20472;-86
2023/08/21 04:13:07;;;;;;;12.75;6.13;;;17.90;99.90;;;;;;5043522;28;20032;-86
2023/08/21 04:15:36;;;;;;;15.18;7.00;;;17.90;99.90;;;;;;5025821;28;20048;-87
2023/08/21 04:18:02;;;;;;;12.18;5.47;;;17.90;99.90;;;;;;5019657;28;20053;-86
2023/08/21 04:20:28;;;;;;;8.98;5.80;;;17.80;99.90;;;;;;5006938;28;20043;-88
2023/08/21 04:22:54;;;;;;;9.27;5.72;;;17.70;99.90;;;;;;5033299;28;20048;-87
2023/08/21 04:25:19;;;;;;;7.78;5.40;;;17.70;99.90;;;;;;5036318;28;20043;-87
2023/08/21 04:27:45;;;;;;;12.43;5.80;;;17.80;99.90;;;;;;5005951;28;20110;-87
2023/08/21 04:30:11;;;;;;;9.93;6.38;;;17.80;99.90;;;;;;5029352;28;20127;-88
2023/08/21 04:32:37;;;;;;;11.98;5.70;;;17.80;99.90;;;;;;5034032;28;20663;-87
2023/08/21 04:35:05;;;;;;;18.58;6.53;;;17.90;99.90;;;;;;5019381;28;20117;-86
2023/08/21 04:37:31;;;;;;;12.05;5.88;;;17.90;99.90;;;;;;5014617;28;20538;-87
2023/08/21 04:39:57;;;;;;;13.38;6.18;;;18.00;99.90;;;;;;5037808;28;20032;-87
2023/08/21 04:42:22;;;;;;;5.55;5.05;;;18.00;99.90;;;;;;5033588;28;20039;-87
2023/08/21 04:44:48;;;;;;;9.70;4.80;;;17.60;99.90;;;;;;5010278;28;20452;-87
2023/08/21 04:47:22;;;;;;;7.30;3.83;;;17.80;99.90;;;;;;5050872;28;20402;-87
2023/08/21 04:49:50;;;;;;;5.63;2.80;;;17.70;99.90;;;;;;5059948;28;20036;-88
2023/08/21 04:52:16;;;;;;;3.42;2.50;;;17.50;99.90;;;;;;5050677;28;20501;-87
2023/08/21 04:54:42;;;;;;;6.65;2.85;;;17.30;99.90;;;;;;5025119;28;20040;-87
2023/08/21 04:57:08;;;;;;;4.25;2.85;;;17.20;99.90;;;;;;5070580;28;20033;-87
2023/08/21 04:59:35;;;;;;;4.22;3.63;;;17.10;99.90;;;;;;5043026;28;20041;-88
2023/08/21 05:02:01;;;;;;;4.90;3.20;;;17.10;99.90;;;;;;5050310;28;20032;-87
2023/08/21 05:04:27;;;;;;;6.15;3.00;;;17.10;99.90;;;;;;5048215;28;20037;-88
2023/08/21 05:06:53;;;;;;;3.58;2.13;;;17.00;99.90;;;;;;5036435;28;20036;-87
2023/08/21 05:09:19;;;;;;;2.60;2.00;;;16.80;99.90;;;;;;5010392;28;20041;-88
2023/08/21 05:11:45;;;;;;;2.38;2.17;;;16.70;99.90;;;;;;5048699;28;20052;-87
2023/08/21 05:14:10;;;;;;;2.58;2.22;;;16.70;99.90;;;;;;5054120;28;20098;-87
2023/08/21 05:16:37;;;;;;;5.07;2.30;;;16.80;99.90;;;;;;5044197;28;20032;-88
2023/08/21 05:19:08;;;;;;;4.70;2.47;;;17.10;99.90;;;;;;5032774;28;20052;-88
2023/08/21 05:21:34;;;;;;;3.72;2.50;;;16.90;99.90;;;;;;5037491;28;20047;-87
2023/08/21 05:24:00;;;;;;;4.40;2.55;;;16.90;99.90;;;;;;5033101;28;20773;-87
2023/08/21 05:26:26;;;;;;;3.03;2.45;;;16.90;99.90;;;;;;5024523;28;20093;-86
2023/08/21 05:28:51;;;;;;;5.40;2.70;;;17.10;99.90;;;;;;5021690;28;20388;-88
2023/08/21 05:31:17;;;;;;;3.53;2.20;;;17.20;99.90;;;;;;5037448;28;20085;-88
2023/08/21 05:33:43;;;;;;;2.20;2.00;;;17.30;99.90;;;;;;5021964;28;20486;-87
2023/08/21 05:36:08;;;;;;;3.33;2.08;;;17.30;99.90;;;;;;5040399;28;20419;-88
2023/08/21 05:38:34;;;;;;;2.95;1.98;;;17.20;99.90;;;;;;5041224;28;20197;-88
2023/08/21 05:41:00;;;;;;;3.17;2.45;;;17.30;99.90;;;;;;5037633;28;20047;-89
2023/08/21 05:43:26;;;;;;;3.88;2.78;;;17.30;99.90;;;;;;5040660;28;20097;-89
2023/08/21 05:45:52;;;;;;;4.32;2.80;;;17.30;99.90;;;;;;5034179;28;20587;-87
2023/08/21 05:48:18;;;;;;;5.70;3.40;;;17.40;99.90;;;;;;5060849;28;20036;-89
2023/08/21 05:50:43;;;;;;;4.78;2.95;;;17.40;99.90;;;;;;5068403;28;20040;-87
2023/08/21 05:53:09;;;;;;;4.80;3.15;;;17.50;99.90;;;;;;5054981;28;20116;-89
2023/08/21 05:55:37;;;;;;;3.15;2.45;;;17.70;99.90;;;;;;5055954;28;20456;-90
2023/08/21 05:58:03;;;;;;;5.07;3.03;;;17.70;99.90;;;;;;5053704;28;20036;-88
2023/08/21 06:00:29;;;;;;;5.38;3.42;;;17.90;99.90;;;;;;5030251;28;20040;-88
2023/08/21 06:02:55;;;;;;;4.75;3.00;;;18.10;99.90;;;;;;5056224;28;20365;-88
2023/08/21 06:05:21;;;;;;;7.40;3.60;;;18.20;99.90;;;;;;5052017;28;20071;-88
2023/08/21 06:07:47;;;;;;;7.10;3.10;;;18.40;99.90;;;;;;5034310;28;20081;-88
2023/08/21 06:10:14;;;;;;;4.82;3.00;;;18.60;99.90;;;;;;5022563;28;20047;-87
2023/08/21 06:12:41;;;;;;;9.30;3.35;;;18.60;99.90;;;;;;5024733;28;20040;-87
2023/08/21 06:15:11;;;;;;;7.55;3.70;;;18.60;99.90;;;;;;5056837;28;20036;-87
2023/08/21 06:17:38;;;;;;;8.30;4.18;;;18.70;99.90;;;;;;5071777;28;20048;-87
2023/08/21 06:20:13;;;;;;;9.30;3.85;;;18.90;99.90;;;;;;5057048;28;20040;-88
2023/08/21 06:22:39;;;;;;;9.68;4.10;;;18.90;99.90;;;;;;5057520;28;20051;-87
2023/08/21 06:25:05;;;;;;;12.70;4.20;;;19.10;99.90;;;;;;5062717;28;20408;-87
2023/08/21 06:27:31;;;;;;;10.68;3.65;;;19.20;99.90;;;;;;5051092;28;20480;-86
2023/08/21 06:29:57;;;;;;;8.73;3.90;;;19.30;99.90;;;;;;5039342;28;20036;-87
2023/08/21 06:32:23;;;;;;;9.98;3.78;;;19.50;99.90;;;;;;5032418;28;20402;-87
2023/08/21 06:34:49;;;;;;;9.25;3.65;;;19.50;99.90;;;;;;5039229;28;20174;-86
2023/08/21 06:37:14;;;;;;;10.13;3.70;;;19.50;99.90;;;;;;5035178;28;20068;-87
2023/08/21 06:39:40;;;;;;;13.55;4.20;;;19.60;99.90;;;;;;5040769;28;20115;-88
2023/08/21 06:42:06;;;;;;;11.95;3.60;;;19.80;99.90;;;;;;5046055;28;20115;-86
2023/08/21 06:44:32;;;;;;;4.85;3.20;;;19.70;99.90;;;;;;5033306;28;20097;-86
2023/08/21 06:46:58;;;;;;;10.68;3.58;;;19.00;99.90;;;;;;5046572;28;20040;-87
2023/08/21 06:49:24;;;;;;;7.53;2.95;;;19.90;99.90;;;;;;5021738;28;20160;-87
2023/08/21 06:51:49;;;;;;;5.88;2.88;;;20.00;99.90;;;;;;5015609;28;20036;-87
2023/08/21 06:54:15;;;;;;;6.40;2.50;;;20.10;99.90;;;;;;5014601;28;20037;-87
2023/08/21 06:56:41;;;;;;;4.47;2.20;;;20.10;99.90;;;;;;5032270;28;20032;-87
2023/08/21 06:59:08;;;;;;;5.68;2.40;;;20.20;99.90;;;;;;5043501;28;20028;-88
2023/08/21 07:01:34;;;;;;;7.30;2.47;;;20.40;99.90;;;;;;5035043;28;20154;-86
2023/08/21 07:04:00;;;;;;;6.65;2.67;;;19.20;99.90;;;;;;5017670;28;20498;-87
2023/08/21 07:06:29;;;;;;;6.43;2.50;;;20.60;99.90;;;;;;5059462;28;20036;-87
2023/08/21 07:08:55;;;;;;;4.45;2.58;;;20.50;99.90;;;;;;5050196;28;20056;-86
2023/08/21 07:11:20;;;;;;;9.93;4.05;;;20.70;99.90;;;;;;5037952;28;20071;-87
2023/08/21 07:13:46;;;;;;;8.02;3.10;;;20.90;99.90;;;;;;5043468;28;20078;-87
2023/08/21 07:16:12;;;;;;;6.93;2.42;;;21.00;99.90;;;;;;5076381;28;20028;-87
2023/08/21 07:18:38;;;;;;;6.53;2.95;;;21.00;99.90;;;;;;5018536;28;20088;-87
2023/08/21 07:21:04;;;;;;;3.38;1.90;;;21.10;99.90;;;;;;5051949;28;20032;-87
2023/08/21 07:23:34;;;;;;;5.47;1.83;;;20.90;99.90;;;;;;5071420;28;20071;-87
2023/08/21 07:26:00;;;;;;;4.70;2.65;;;21.20;99.90;;;;;;5017240;28;20113;-86
2023/08/21 07:28:26;;;;;;;5.53;1.90;;;21.30;99.90;;;;;;5076560;28;20048;-86
2023/08/21 07:30:59;;;;;;;4.60;1.67;;;21.10;99.90;;;;;;5076202;28;20047;-87
2023/08/21 07:33:25;;;;;;;4.47;1.70;;;21.20;99.90;;;;;;5075625;28;20040;-87
2023/08/21 07:36:02;;;;;;;6.35;2.00;;;21.40;99.90;;;;;;5037798;28;20043;-87
2023/08/21 07:38:28;;;;;;;5.03;1.92;;;21.50;99.90;;;;;;5034201;28;20085;-86
2023/08/21 07:41:23;;;;;;;4.45;1.65;;;21.50;99.90;;;;;;5023102;28;20036;-87
2023/08/21 07:43:48;;;;;;;2.00;1.50;;;21.60;99.90;;;;;;5037183;28;20095;-87
2023/08/21 07:46:18;;;;;;;4.72;1.60;;;21.60;99.90;;;;;;5025112;28;20068;-86
2023/08/21 07:48:46;;;;;;;5.82;2.38;;;21.80;99.90;;;;;;5038186;28;20130;-86
2023/08/21 07:51:13;;;;;;;3.95;1.55;;;21.80;99.90;;;;;;5044061;28;20507;-88
2023/08/21 07:53:39;;;;;;;6.68;2.00;;;21.80;99.90;;;;;;5066397;28;20071;-86
2023/08/21 07:56:05;;;;;;;3.78;1.77;;;22.20;99.90;;;;;;5049829;28;20040;-86
2023/08/21 07:58:31;;;;;;;3.95;1.40;;;22.10;99.90;;;;;;5048254;28;20078;-86
2023/08/21 08:00:58;;;;;;;5.00;1.60;;;22.20;99.90;;;;;;5032213;28;20041;-87
2023/08/21 08:03:24;;;;;;;5.65;1.73;;;22.40;99.90;;;;;;5030428;28;20471;-86
2023/08/21 08:05:49;;;;;;;3.55;1.60;;;22.60;99.90;;;;;;5024142;28;20124;-87
2023/08/21 08:08:17;;;;;;;4.05;1.65;;;22.70;99.90;;;;;;5030500;28;20400;-87
2023/08/21 08:10:43;;;;;;;3.03;2.03;;;22.80;99.90;;;;;;5057424;28;20036;-86
2023/08/21 08:13:08;;;;;;;4.22;1.63;;;22.90;99.90;;;;;;5038787;28;20400;-86
2023/08/21 08:15:36;;;;;;;4.22;1.60;;;22.80;99.90;;;;;;5040849;28;20113;-86
2023/08/21 08:18:03;;;;;;;5.43;1.70;;;22.80;99.90;;;;;;5044789;28;20087;-86
2023/08/21 08:20:29;;;;;;;3.25;1.50;;;22.80;99.90;;;;;;5021196;28;20432;-86
2023/08/21 08:22:54;;;;;;;4.20;1.80;;;22.90;99.90;;;;;;5019429;28;20045;-86
2023/08/21 08:25:20;;;;;;;4.13;1.73;;;23.00;99.90;;;;;;4999126;28;20037;-86
2023/08/21 08:27:46;;;;;;;4.45;1.48;;;23.00;99.90;;;;;;5017977;28;20593;-86
2023/08/21 08:30:12;;;;;;;5.90;1.58;;;23.20;99.90;;;;;;5038995;28;20047;-86
2023/08/21 08:32:40;;;;;;;3.85;1.45;;;23.40;99.90;;;;;;5034968;28;20051;-86
2023/08/21 08:35:07;;;;;;;2.97;1.70;;;23.40;99.90;;;;;;5054979;28;20044;-86
2023/08/21 08:37:33;;;;;;;3.90;1.60;;;23.40;99.90;;;;;;5017779;28;20033;-87
2023/08/21 08:39:58;;;;;;;3.03;1.33;;;23.50;99.90;;;;;;5004740;28;20086;-87
2023/08/21 08:42:24;;;;;;;4.28;1.63;;;23.60;99.90;;;;;;5007579;28;20045;-86
2023/08/21 08:44:53;;;;;;;3.65;1.50;;;23.70;99.90;;;;;;5008245;28;20032;-86
2023/08/21 08:47:19;;;;;;;4.68;1.35;;;23.80;99.90;;;;;;5017446;28;20123;-87
2023/08/21 08:49:48;;;;;;;2.83;1.30;;;23.80;99.90;;;;;;5037183;28;20040;-87
2023/08/21 08:52:17;;;;;;;4.88;1.40;;;23.90;99.90;;;;;;5016711;28;20037;-87
2023/08/21 08:54:43;;;;;;;3.67;1.40;;;24.10;99.90;;;;;;5042947;28;20147;-87
2023/08/21 08:57:09;;;;;;;3.50;1.27;;;24.20;99.90;;;;;;5022762;28;20051;-87
2023/08/21 08:59:35;;;;;;;2.83;1.40;;;24.20;99.90;;;;;;5032217;28;20187;-87
2023/08/21 09:02:00;;;;;;;3.10;1.10;;;24.30;99.90;;;;;;5009356;28;20044;-87
2023/08/21 09:04:26;;;;;;;9.38;1.60;;;24.40;99.90;;;;;;5018651;28;20507;-87
2023/08/21 09:06:52;;;;;;;7.57;1.45;;;24.50;99.90;;;;;;5018081;28;20047;-87
2023/08/21 09:09:18;;;;;;;4.03;1.45;;;24.60;99.90;;;;;;5017454;28;20170;-87
2023/08/21 09:11:45;;;;;;;3.65;1.25;;;24.70;99.90;;;;;;5008928;28;20045;-87
2023/08/21 09:14:11;;;;;;;2.30;1.00;;;24.80;99.90;;;;;;5021759;28;20620;-87
2023/08/21 09:16:37;;;;;;;2.47;1.30;;;24.90;99.90;;;;;;5012792;28;20040;-87
2023/08/21 09:19:03;;;;;;;3.42;1.27;;;24.90;99.90;;;;;;5019060;28;20041;-87
2023/08/21 09:21:29;;;;;;;4.57;1.50;;;25.10;99.90;;;;;;5021852;28;20071;-87
2023/08/21 09:24:00;;;;;;;5.70;1.42;;;25.30;99.90;;;;;;5011810;28;20485;-87
2023/08/21 09:26:26;;;;;;;2.85;1.25;;;25.40;99.90;;;;;;5051069;28;20464;-90
2023/08/21 09:28:53;;;;;;;2.80;1.30;;;25.60;99.90;;;;;;5037419;28;20033;-88
2023/08/21 09:31:31;;;;;;;3.72;1.20;;;25.60;99.90;;;;;;5037441;28;20406;-88
2023/08/21 09:33:59;;;;;;;3.30;1.10;;;25.80;99.90;;;;;;5033467;28;20047;-88
2023/08/21 09:36:24;;;;;;;3.50;1.38;;;25.90;99.90;;;;;;5036080;28;20071;-88
2023/08/21 09:38:53;;;;;;;3.75;1.30;;;26.00;99.90;;;;;;5004111;28;20072;-88
2023/08/21 09:41:21;;;;;;;2.50;1.15;;;26.30;99.90;;;;;;5024020;28;20128;-87
2023/08/21 09:43:46;;;;;;;2.45;1.20;;;26.60;99.90;;;;;;5037308;28;20040;-89
2023/08/21 09:46:25;;;;;;;2.20;1.20;;;26.80;99.90;;;;;;5021120;28;20089;-88
2023/08/21 09:48:52;;;;;;;1.73;1.10;;;27.20;99.90;;;;;;5037264;28;20072;-89
2023/08/21 09:51:18;;;;;;;3.35;1.10;;;27.30;99.90;;;;;;5053224;28;20501;-89
2023/08/21 09:53:45;;;;;;;5.25;1.50;;;27.30;99.90;;;;;;5007415;28;20844;-89
2023/08/21 09:56:12;;;;;;;3.92;1.15;;;27.80;99.90;;;;;;5022226;28;20629;-89
2023/08/21 09:58:43;;;;;;;3.00;1.23;;;28.10;99.90;;;;;;5046623;28;20097;-89
2023/08/21 10:01:13;;;;;;;6.63;1.20;;;28.40;99.90;;;;;;5029082;28;20039;-89
2023/08/21 10:03:40;;;;;;;1.00;0.85;;;28.40;99.90;;;;;;5003872;28;20087;-88
2023/08/21 10:06:11;;;;;;;3.45;1.50;;;28.20;99.90;;;;;;5021085;28;20042;-89
2023/08/21 10:08:41;;;;;;;2.95;1.02;;;28.60;99.90;;;;;;5027877;28;20048;-87
2023/08/21 10:11:14;;;;;;;3.75;1.00;;;28.80;99.90;;;;;;5040975;28;20044;-88
2023/08/21 10:13:46;;;;;;;3.22;1.38;;;28.70;99.90;;;;;;5043288;28;20050;-87
2023/08/21 10:16:12;;;;;;;2.97;1.42;;;28.80;99.90;;;;;;5042023;28;20499;-87
2023/08/21 10:18:43;;;;;;;2.30;1.10;;;28.80;99.90;;;;;;5019167;28;20544;-87
2023/08/21 10:21:17;;;;;;;9.07;1.75;;;29.10;99.90;;;;;;5041256;28;20041;-87
2023/08/21 10:23:47;;;;;;;7.13;1.50;;;29.00;99.90;;;;;;5045330;28;20596;-87
2023/08/21 10:26:13;;;;;;;2.63;1.00;;;29.10;99.90;;;;;;5044912;28;20033;-87
2023/08/21 10:28:52;;;;;;;1.58;1.00;;;29.10;99.90;;;;;;5047057;28;20527;-89
2023/08/21 10:31:31;;;;;;;5.60;1.98;;;29.10;99.90;;;;;;5057440;28;20040;-88
2023/08/21 10:33:58;;;;;;;4.30;1.30;;;29.10;99.90;;;;;;5057798;28;20040;-88
2023/08/21 10:36:42;;;;;;;4.35;1.40;;;29.40;99.90;;;;;;5061923;28;20040;-88
2023/08/21 10:39:22;;;;;;;2.33;1.10;;;29.30;1.00;;;;;;5055507;28;20511;-88
2023/08/21 10:42:07;;;;;;;2.80;1.20;;;29.30;71.60;;;;;;5055127;28;20048;-88
2023/08/21 10:44:41;;;;;;;3.33;1.27;;;29.30;83.90;;;;;;5055838;28;20083;-88
2023/08/21 10:47:34;;;;;;;3.55;1.20;;;29.40;1.00;;;;;;5049421;28;20040;-88
2023/08/21 10:50:03;;;;;;;1.63;1.15;;;29.20;1.00;;;;;;5056510;28;20047;-87
2023/08/21 10:52:32;;;;;;;3.45;1.02;;;29.20;1.00;;;;;;5068302;28;20409;-87
2023/08/21 10:55:00;;;;;;;3.42;1.10;;;29.50;44.80;;;;;;5050600;28;20076;-88
2023/08/21 10:57:29;;;;;;;2.53;1.23;;;29.70;90.20;;;;;;5046562;28;20043;-88
2023/08/21 10:59:57;;;;;;;4.35;1.50;;;29.70;77.70;;;;;;5056725;28;20564;-87
2023/08/21 11:02:25;;;;;;;2.55;1.30;;;29.90;1.00;;;;;;5058694;28;20032;-88
2023/08/21 11:04:52;;;;;;;3.50;1.38;;;30.10;1.00;;;;;;5037729;28;20041;-87
2023/08/21 11:07:18;;;;;;;1.92;1.00;;;30.10;5.60;;;;;;5044933;28;20389;-88
2023/08/21 11:09:45;;;;;;;1.92;1.02;;;30.00;99.90;;;;;;5037173;28;20041;-87
2023/08/21 11:12:16;;;;;;;6.35;1.80;;;30.00;1.00;;;;;;5048369;28;20075;-88
2023/08/21 11:14:42;;;;;;;2.08;0.98;;;30.10;15.30;;;;;;5073560;28;20129;-87
2023/08/21 11:17:09;;;;;;;3.70;1.13;;;30.00;27.00;;;;;;5039650;28;20083;-87
2023/08/21 11:19:36;;;;;;;2.45;1.10;;;30.00;46.70;;;;;;5039847;28;20396;-88
2023/08/21 11:22:06;;;;;;;4.40;1.10;;;30.10;24.50;;;;;;5041085;28;20044;-88
2023/08/21 11:24:38;;;;;;;3.35;1.55;;;30.20;55.80;;;;;;5023297;28;20431;-87
2023/08/21 11:27:15;;;;;;;3.33;1.10;;;30.60;43.80;;;;;;5047765;28;20051;-87
2023/08/21 11:29:52;;;;;;;2.17;1.10;;;30.50;3.30;;;;;;5026013;28;20048;-88
2023/08/21 11:32:21;;;;;;;2.45;1.30;;;30.20;1.00;;;;;;5034912;28;20043;-88
2023/08/21 11:34:55;;;;;;;1.67;1.00;;;30.00;1.00;;;;;;5050130;28;20462;-87
2023/08/21 11:37:22;;;;;;;2.38;1.30;;;30.40;1.00;;;;;;5023526;28;20029;-87
2023/08/21 11:39:51;;;;;;;1.67;1.08;;;30.50;12.50;;;;;;5036599;28;20493;-87
2023/08/21 11:42:21;;;;;;;1.65;0.90;;;30.70;14.00;;;;;;5044324;28;20041;-87
2023/08/21 11:44:51;;;;;;;2.45;1.30;;;30.80;1.00;;;;;;5038228;28;20075;-88
2023/08/21 11:47:19;;;;;;;2.30;1.13;;;30.70;1.00;;;;;;5043475;28;20045;-88
2023/08/21 11:49:49;;;;;;;2.53;1.10;;;30.70;1.00;;;;;;5033544;28;20072;-88
2023/08/21 11:52:25;;;;;;;3.10;1.33;;;30.50;1.00;;;;;;5046461;28;20048;-88
2023/08/21 11:54:52;;;;;;;4.32;1.58;;;30.30;1.00;;;;;;5056236;28;20036;-88
2023/08/21 11:57:18;;;;;;;2.17;1.20;;;29.90;1.00;;;;;;5036515;28;20055;-88
2023/08/21 11:59:53;;;;;;;2.10;1.42;;;29.60;10.20;;;;;;5041952;28;20065;-88
2023/08/21 12:02:23;;;;;;;2.35;1.10;;;29.50;6.60;;;;;;5037726;28;20124;-88
2023/08/21 12:05:02;;;;;;;2.40;1.20;;;29.50;1.00;;;;;;5056218;28;20043;-87
2023/08/21 12:07:28;;;;;;;4.15;1.17;;;29.70;1.00;;;;;;5055011;28;20105;-87
2023/08/21 12:09:54;;;;;;;1.75;1.17;;;29.90;1.00;;;;;;5038819;28;20428;-87
2023/08/21 12:12:20;;;;;;;2.38;1.23;;;29.70;1.00;;;;;;5030935;28;20040;-87
2023/08/21 12:14:46;;;;;;;2.60;1.65;;;30.20;1.00;;;;;;5053316;28;20094;-88
2023/08/21 12:17:12;;;;;;;3.42;1.40;;;30.10;1.00;;;;;;5052632;28;20489;-88
2023/08/21 12:19:38;;;;;;;2.08;1.10;;;30.00;1.00;;;;;;5043999;28;20056;-87
2023/08/21 12:22:04;;;;;;;3.17;1.35;;;30.20;1.00;;;;;;5045415;28;20518;-88
2023/08/21 12:24:30;;;;;;;3.55;1.27;;;30.10;1.00;;;;;;5033694;28;20044;-89
2023/08/21 12:26:56;;;;;;;1.65;1.10;;;30.40;1.00;;;;;;5022716;28;20041;-88
2023/08/21 12:29:22;;;;;;;1.85;1.20;;;30.30;1.00;;;;;;5037327;28;20128;-89
2023/08/21 12:31:48;;;;;;;4.28;1.27;;;30.40;1.00;;;;;;5032465;28;20059;-88
2023/08/21 12:34:14;;;;;;;2.53;1.10;;;30.30;1.00;;;;;;5030384;28;20032;-88
2023/08/21 12:36:40;;;;;;;2.35;1.42;;;30.00;1.00;;;;;;5063385;28;20043;-88
2023/08/21 12:39:07;;;;;;;4.35;1.50;;;30.40;1.00;;;;;;5015997;28;20040;-88
2023/08/21 12:41:34;;;;;;;3.08;1.17;;;30.20;1.00;;;;;;5041273;28;20367;-88
2023/08/21 12:44:01;;;;;;;2.03;1.20;;;30.20;1.00;;;;;;5033125;28;20416;-88
2023/08/21 12:46:30;;;;;;;2.38;1.10;;;30.70;1.00;;;;;;5053257;28;20037;-88
2023/08/21 12:48:56;;;;;;;1.67;1.20;;;30.90;1.00;;;;;;5030030;28;20094;-88
2023/08/21 12:51:23;;;;;;;1.83;1.15;;;31.10;1.00;;;;;;5051871;28;20108;-88